Terminal Aerodrome Forecast
Issued by NWS Wilmington, OH

Current Version | Previous Version | Graphics & Text | Print | Product List | Glossary On
Versions: 1 2 3 4 5 6 7 8 9 10 11 12 13 14 15 16 17 18 19 20 21
663
FTUS41 KILN 170521
TAFCVG
TAF
KCVG 170521Z 1706/1812 00000KT P6SM FEW250
     FM171100 00000KT 6SM BR SCT250
     FM171300 19004KT P6SM FEW060 SCT250
     FM180000 00000KT P6SM SCT060 BKN250
     FM181000 00000KT P6SM SCT040 BKN130=

USA.gov is the U.S. government's official web portal to all federal, state and local government web resources and services.